Terminal Aerodrome Forecast
Issued by NWS

Home | Current Version | Previous Version | Text Only | Print | Product List | Glossary On
Versions: 1 2 3 4 5 6 7 8 9 10 11 12 13 14 15 16 17 18 19 20 21 22 23 24 25 26 27 28 29 30 31 32 33 34 35 36 37 38 39 40 41 42 43 44 45 46 47 48 49 50
000
FTUS43 KLOT 231336 AAA
TAFGYY
TAF AMD
KGYY 231336Z 2314/2412 36012G20KT 5SM -RA OVC007
      TEMPO 2314/2316 3SM -RA OVC006
     FM231600 33014KT 6SM -RA BKN012 OVC030
     FM232300 27012KT P6SM SCT020 BKN200
     FM240500 28013G22KT 6SM -RA BKN012 OVC040
     FM240900 25012KT 4SM -RA OVC008=

USA.gov is the U.S. government's official web portal to all federal, state and local government web resources and services.